sensor_id;sensor_type;location;lat;lon;timestamp;temperature;humidity
68235;DHT22;55052;52.056;5.296;2023-09-18T00:00:47;19.70;99.90
68235;DHT22;55052;52.056;5.296;2023-09-18T00:03:20;19.70;99.90
68235;DHT22;55052;52.056;5.296;2023-09-18T00:05:48;19.70;99.90
68235;DHT22;55052;52.056;5.296;2023-09-18T00:08:16;19.80;99.90
68235;DHT22;55052;52.056;5.296;2023-09-18T00:10:51;19.80;99.90
68235;DHT22;55052;52.056;5.296;2023-09-18T00:13:19;19.80;99.90
68235;DHT22;55052;52.056;5.296;2023-09-18T00:15:45;19.80;99.90
68235;DHT22;55052;52.056;5.296;2023-09-18T00:18:16;19.90;99.90
68235;DHT22;55052;52.056;5.296;2023-09-18T00:20:43;19.90;99.90
68235;DHT22;55052;52.056;5.296;2023-09-18T00:23:10;19.90;99.90
68235;DHT22;55052;52.056;5.296;2023-09-18T00:25:37;19.90;99.90
68235;DHT22;55052;52.056;5.296;2023-09-18T00:28:04;19.90;99.90
68235;DHT22;55052;52.056;5.296;2023-09-18T00:30:32;19.90;99.90
68235;DHT22;55052;52.056;5.296;2023-09-18T00:32:59;19.90;99.90
68235;DHT22;55052;52.056;5.296;2023-09-18T00:35:26;19.90;99.90
68235;DHT22;55052;52.056;5.296;2023-09-18T00:37:53;20.00;99.90
68235;DHT22;55052;52.056;5.296;2023-09-18T00:40:19;20.00;99.90
68235;DHT22;55052;52.056;5.296;2023-09-18T00:42:46;19.90;99.90
68235;DHT22;55052;52.056;5.296;2023-09-18T00:45:13;19.90;99.90
68235;DHT22;55052;52.056;5.296;2023-09-18T00:47:40;19.90;99.90
68235;DHT22;55052;52.056;5.296;2023-09-18T00:50:10;19.90;99.90
68235;DHT22;55052;52.056;5.296;2023-09-18T00:52:40;19.90;99.90
68235;DHT22;55052;52.056;5.296;2023-09-18T00:55:08;19.90;99.90
68235;DHT22;55052;52.056;5.296;2023-09-18T00:57:36;20.00;99.90
68235;DHT22;55052;52.056;5.296;2023-09-18T01:00:05;19.90;99.90
68235;DHT22;55052;52.056;5.296;2023-09-18T01:02:32;19.90;99.90
68235;DHT22;55052;52.056;5.296;2023-09-18T01:04:59;19.90;99.90
68235;DHT22;55052;52.056;5.296;2023-09-18T01:07:26;19.90;99.90
68235;DHT22;55052;52.056;5.296;2023-09-18T01:09:56;19.90;99.90
68235;DHT22;55052;52.056;5.296;2023-09-18T01:12:45;19.90;99.90
68235;DHT22;55052;52.056;5.296;2023-09-18T01:15:22;19.90;99.90
68235;DHT22;55052;52.056;5.296;2023-09-18T01:17:53;19.90;99.90
68235;DHT22;55052;52.056;5.296;2023-09-18T01:20:21;19.90;99.90
68235;DHT22;55052;52.056;5.296;2023-09-18T01:22:47;19.80;99.90
68235;DHT22;55052;52.056;5.296;2023-09-18T01:25:16;19.80;99.90
68235;DHT22;55052;52.056;5.296;2023-09-18T01:27:43;19.80;99.90
68235;DHT22;55052;52.056;5.296;2023-09-18T01:30:10;19.80;99.90
68235;DHT22;55052;52.056;5.296;2023-09-18T01:32:39;19.80;99.90
68235;DHT22;55052;52.056;5.296;2023-09-18T01:35:08;19.80;99.90
68235;DHT22;55052;52.056;5.296;2023-09-18T01:37:37;19.80;99.90
68235;DHT22;55052;52.056;5.296;2023-09-18T01:40:07;19.80;99.90
68235;DHT22;55052;52.056;5.296;2023-09-18T01:42:35;19.80;99.90
68235;DHT22;55052;52.056;5.296;2023-09-18T01:45:02;19.80;99.90
68235;DHT22;55052;52.056;5.296;2023-09-18T01:47:31;19.80;99.90
68235;DHT22;55052;52.056;5.296;2023-09-18T01:50:03;19.80;99.90
68235;DHT22;55052;52.056;5.296;2023-09-18T01:52:32;19.80;99.90
68235;DHT22;55052;52.056;5.296;2023-09-18T01:54:59;19.80;99.90
68235;DHT22;55052;52.056;5.296;2023-09-18T01:57:26;19.80;99.90
68235;DHT22;55052;52.056;5.296;2023-09-18T01:59:52;19.90;99.90
68235;DHT22;55052;52.056;5.296;2023-09-18T02:02:20;19.90;99.90
68235;DHT22;55052;52.056;5.296;2023-09-18T02:05:07;19.90;99.90
68235;DHT22;55052;52.056;5.296;2023-09-18T02:07:35;19.90;99.90
68235;DHT22;55052;52.056;5.296;2023-09-18T02:10:02;19.90;99.90
68235;DHT22;55052;52.056;5.296;2023-09-18T02:12:30;20.00;99.90
68235;DHT22;55052;52.056;5.296;2023-09-18T02:14:56;20.00;99.90
68235;DHT22;55052;52.056;5.296;2023-09-18T02:17:25;20.10;99.90
68235;DHT22;55052;52.056;5.296;2023-09-18T02:19:52;20.10;99.90
68235;DHT22;55052;52.056;5.296;2023-09-18T02:22:19;20.20;99.90
68235;DHT22;55052;52.056;5.296;2023-09-18T02:24:46;20.20;99.90
68235;DHT22;55052;52.056;5.296;2023-09-18T02:27:13;20.20;99.90
68235;DHT22;55052;52.056;5.296;2023-09-18T02:29:43;20.20;99.90
68235;DHT22;55052;52.056;5.296;2023-09-18T02:32:10;20.30;99.90
68235;DHT22;55052;52.056;5.296;2023-09-18T02:34:37;20.30;99.90
68235;DHT22;55052;52.056;5.296;2023-09-18T02:37:04;20.30;99.90
68235;DHT22;55052;52.056;5.296;2023-09-18T02:39:31;20.30;99.90
68235;DHT22;55052;52.056;5.296;2023-09-18T02:41:57;20.30;99.90
68235;DHT22;55052;52.056;5.296;2023-09-18T02:44:24;20.40;99.90
68235;DHT22;55052;52.056;5.296;2023-09-18T02:46:51;20.40;99.90
68235;DHT22;55052;52.056;5.296;2023-09-18T02:49:19;20.40;99.90
68235;DHT22;55052;52.056;5.296;2023-09-18T02:51:47;20.40;99.90
68235;DHT22;55052;52.056;5.296;2023-09-18T02:54:14;20.40;99.90
68235;DHT22;55052;52.056;5.296;2023-09-18T02:56:40;20.40;99.90
68235;DHT22;55052;52.056;5.296;2023-09-18T02:59:07;20.40;99.90
68235;DHT22;55052;52.056;5.296;2023-09-18T03:01:35;20.40;99.90
68235;DHT22;55052;52.056;5.296;2023-09-18T03:04:02;20.50;99.90
68235;DHT22;55052;52.056;5.296;2023-09-18T03:06:30;20.50;99.90
68235;DHT22;55052;52.056;5.296;2023-09-18T03:08:57;20.50;99.90
68235;DHT22;55052;52.056;5.296;2023-09-18T03:11:24;20.50;99.90
68235;DHT22;55052;52.056;5.296;2023-09-18T03:13:54;20.50;99.90
68235;DHT22;55052;52.056;5.296;2023-09-18T03:16:20;20.40;99.90
68235;DHT22;55052;52.056;5.296;2023-09-18T03:18:47;20.50;99.90
68235;DHT22;55052;52.056;5.296;2023-09-18T03:21:15;20.50;99.90
68235;DHT22;55052;52.056;5.296;2023-09-18T03:23:41;20.40;99.90
68235;DHT22;55052;52.056;5.296;2023-09-18T03:26:08;20.40;99.90
68235;DHT22;55052;52.056;5.296;2023-09-18T03:28:35;20.50;99.90
68235;DHT22;55052;52.056;5.296;2023-09-18T03:31:02;20.50;99.90
68235;DHT22;55052;52.056;5.296;2023-09-18T03:33:31;20.50;99.90
68235;DHT22;55052;52.056;5.296;2023-09-18T03:35:58;20.50;99.90
68235;DHT22;55052;52.056;5.296;2023-09-18T03:38:25;20.50;99.90
68235;DHT22;55052;52.056;5.296;2023-09-18T03:40:52;20.50;99.90
68235;DHT22;55052;52.056;5.296;2023-09-18T03:43:19;20.40;99.90
68235;DHT22;55052;52.056;5.296;2023-09-18T03:45:46;20.40;99.90
68235;DHT22;55052;52.056;5.296;2023-09-18T03:48:12;20.40;99.90
68235;DHT22;55052;52.056;5.296;2023-09-18T03:50:39;20.40;99.90
68235;DHT22;55052;52.056;5.296;2023-09-18T03:53:08;20.50;99.90
68235;DHT22;55052;52.056;5.296;2023-09-18T03:55:35;20.40;99.90
68235;DHT22;55052;52.056;5.296;2023-09-18T03:58:02;20.40;99.90
68235;DHT22;55052;52.056;5.296;2023-09-18T04:00:30;20.40;99.90
68235;DHT22;55052;52.056;5.296;2023-09-18T04:02:57;20.40;99.90
68235;DHT22;55052;52.056;5.296;2023-09-18T04:05:24;20.40;99.90
68235;DHT22;55052;52.056;5.296;2023-09-18T04:07:52;20.40;99.90
68235;DHT22;55052;52.056;5.296;2023-09-18T04:10:19;20.40;99.90
68235;DHT22;55052;52.056;5.296;2023-09-18T04:12:51;20.40;99.90
68235;DHT22;55052;52.056;5.296;2023-09-18T04:15:19;20.40;99.90
68235;DHT22;55052;52.056;5.296;2023-09-18T04:17:46;20.40;99.90
68235;DHT22;55052;52.056;5.296;2023-09-18T04:20:14;20.40;99.90
68235;DHT22;55052;52.056;5.296;2023-09-18T04:22:44;20.40;99.90
68235;DHT22;55052;52.056;5.296;2023-09-18T04:25:12;20.40;99.90
68235;DHT22;55052;52.056;5.296;2023-09-18T04:27:39;20.40;99.90
68235;DHT22;55052;52.056;5.296;2023-09-18T04:30:07;20.40;99.90
68235;DHT22;55052;52.056;5.296;2023-09-18T04:32:40;20.40;99.90
68235;DHT22;55052;52.056;5.296;2023-09-18T04:35:08;20.40;99.90
68235;DHT22;55052;52.056;5.296;2023-09-18T04:37:37;20.40;99.90
68235;DHT22;55052;52.056;5.296;2023-09-18T04:40:08;20.40;99.90
68235;DHT22;55052;52.056;5.296;2023-09-18T04:42:39;20.40;99.90
68235;DHT22;55052;52.056;5.296;2023-09-18T04:45:07;20.40;99.90
68235;DHT22;55052;52.056;5.296;2023-09-18T04:47:34;20.40;99.90
68235;DHT22;55052;52.056;5.296;2023-09-18T04:50:01;20.40;99.90
68235;DHT22;55052;52.056;5.296;2023-09-18T04:52:38;20.40;99.90
68235;DHT22;55052;52.056;5.296;2023-09-18T04:55:07;20.40;99.90
68235;DHT22;55052;52.056;5.296;2023-09-18T04:57:35;20.40;99.90
68235;DHT22;55052;52.056;5.296;2023-09-18T05:00:02;20.30;99.90
68235;DHT22;55052;52.056;5.296;2023-09-18T05:02:42;20.30;99.90
68235;DHT22;55052;52.056;5.296;2023-09-18T05:05:09;20.30;99.90
68235;DHT22;55052;52.056;5.296;2023-09-18T05:07:37;20.30;99.90
68235;DHT22;55052;52.056;5.296;2023-09-18T05:10:04;20.40;99.90
68235;DHT22;55052;52.056;5.296;2023-09-18T05:12:31;20.40;99.90
68235;DHT22;55052;52.056;5.296;2023-09-18T05:14:58;20.40;99.90
68235;DHT22;55052;52.056;5.296;2023-09-18T05:17:47;20.40;99.90
68235;DHT22;55052;52.056;5.296;2023-09-18T05:20:16;20.40;99.90
68235;DHT22;55052;52.056;5.296;2023-09-18T05:22:44;20.40;99.90
68235;DHT22;55052;52.056;5.296;2023-09-18T05:25:12;20.40;99.90
68235;DHT22;55052;52.056;5.296;2023-09-18T05:27:42;20.40;99.90
68235;DHT22;55052;52.056;5.296;2023-09-18T05:30:18;20.40;99.90
68235;DHT22;55052;52.056;5.296;2023-09-18T05:32:48;20.40;99.90
68235;DHT22;55052;52.056;5.296;2023-09-18T05:35:15;20.40;99.90
68235;DHT22;55052;52.056;5.296;2023-09-18T05:37:43;20.40;99.90
68235;DHT22;55052;52.056;5.296;2023-09-18T05:40:11;20.40;99.90
68235;DHT22;55052;52.056;5.296;2023-09-18T05:42:41;20.50;99.90
68235;DHT22;55052;52.056;5.296;2023-09-18T05:45:13;20.50;99.90
68235;DHT22;55052;52.056;5.296;2023-09-18T05:47:40;20.50;99.90
68235;DHT22;55052;52.056;5.296;2023-09-18T05:50:08;20.50;99.90
68235;DHT22;55052;52.056;5.296;2023-09-18T05:52:36;20.50;99.90
68235;DHT22;55052;52.056;5.296;2023-09-18T05:55:03;20.50;99.90
68235;DHT22;55052;52.056;5.296;2023-09-18T05:57:31;20.50;99.90
68235;DHT22;55052;52.056;5.296;2023-09-18T05:59:58;20.50;99.90
68235;DHT22;55052;52.056;5.296;2023-09-18T06:02:25;20.50;99.90
68235;DHT22;55052;52.056;5.296;2023-09-18T06:04:56;20.50;99.90
68235;DHT22;55052;52.056;5.296;2023-09-18T06:07:24;20.50;99.90
68235;DHT22;55052;52.056;5.296;2023-09-18T06:09:52;20.50;99.90
68235;DHT22;55052;52.056;5.296;2023-09-18T06:12:19;20.40;99.90
68235;DHT22;55052;52.056;5.296;2023-09-18T06:14:46;20.50;99.90
68235;DHT22;55052;52.056;5.296;2023-09-18T06:17:14;20.50;99.90
68235;DHT22;55052;52.056;5.296;2023-09-18T06:19:42;20.50;99.90
68235;DHT22;55052;52.056;5.296;2023-09-18T06:22:09;20.40;99.90
68235;DHT22;55052;52.056;5.296;2023-09-18T06:24:36;20.50;99.90
68235;DHT22;55052;52.056;5.296;2023-09-18T06:27:03;20.40;99.90
68235;DHT22;55052;52.056;5.296;2023-09-18T06:29:33;20.40;99.90
68235;DHT22;55052;52.056;5.296;2023-09-18T06:32:01;20.50;99.90
68235;DHT22;55052;52.056;5.296;2023-09-18T06:34:28;20.50;99.90
68235;DHT22;55052;52.056;5.296;2023-09-18T06:36:55;20.50;99.90
68235;DHT22;55052;52.056;5.296;2023-09-18T06:39:22;20.50;99.90
68235;DHT22;55052;52.056;5.296;2023-09-18T06:41:50;20.50;99.90
68235;DHT22;55052;52.056;5.296;2023-09-18T06:44:17;20.50;99.90
68235;DHT22;55052;52.056;5.296;2023-09-18T06:46:44;20.50;99.90
68235;DHT22;55052;52.056;5.296;2023-09-18T06:49:11;20.50;99.90
68235;DHT22;55052;52.056;5.296;2023-09-18T06:51:38;20.50;99.90
68235;DHT22;55052;52.056;5.296;2023-09-18T06:54:09;20.50;99.90
68235;DHT22;55052;52.056;5.296;2023-09-18T06:56:36;20.50;99.90
68235;DHT22;55052;52.056;5.296;2023-09-18T06:59:03;20.50;99.90
68235;DHT22;55052;52.056;5.296;2023-09-18T07:01:29;20.60;99.90
68235;DHT22;55052;52.056;5.296;2023-09-18T07:03:58;20.60;99.90
68235;DHT22;55052;52.056;5.296;2023-09-18T07:06:27;20.60;99.90
68235;DHT22;55052;52.056;5.296;2023-09-18T07:08:55;20.60;99.90
68235;DHT22;55052;52.056;5.296;2023-09-18T07:11:22;20.70;99.90
68235;DHT22;55052;52.056;5.296;2023-09-18T07:13:52;20.60;99.90
68235;DHT22;55052;52.056;5.296;2023-09-18T07:16:19;20.70;99.90
68235;DHT22;55052;52.056;5.296;2023-09-18T07:18:46;20.70;99.90
68235;DHT22;55052;52.056;5.296;2023-09-18T07:21:12;20.70;99.90
68235;DHT22;55052;52.056;5.296;2023-09-18T07:23:40;20.70;99.90
68235;DHT22;55052;52.056;5.296;2023-09-18T07:26:07;20.70;99.90
68235;DHT22;55052;52.056;5.296;2023-09-18T07:28:35;20.70;99.90
68235;DHT22;55052;52.056;5.296;2023-09-18T07:31:08;20.70;99.90
68235;DHT22;55052;52.056;5.296;2023-09-18T07:33:36;20.70;99.90
68235;DHT22;55052;52.056;5.296;2023-09-18T07:36:03;20.70;99.90
68235;DHT22;55052;52.056;5.296;2023-09-18T07:38:30;20.70;99.90
68235;DHT22;55052;52.056;5.296;2023-09-18T07:40:57;20.80;99.90
68235;DHT22;55052;52.056;5.296;2023-09-18T07:43:24;20.70;99.90
68235;DHT22;55052;52.056;5.296;2023-09-18T07:45:53;20.70;99.90
68235;DHT22;55052;52.056;5.296;2023-09-18T07:48:22;20.70;99.90
68235;DHT22;55052;52.056;5.296;2023-09-18T07:50:49;20.80;99.90
68235;DHT22;55052;52.056;5.296;2023-09-18T07:53:18;20.80;99.90
68235;DHT22;55052;52.056;5.296;2023-09-18T07:55:47;20.80;99.90
68235;DHT22;55052;52.056;5.296;2023-09-18T07:58:14;20.80;99.90
68235;DHT22;55052;52.056;5.296;2023-09-18T08:00:41;20.80;99.90
68235;DHT22;55052;52.056;5.296;2023-09-18T08:03:08;20.80;99.70
68235;DHT22;55052;52.056;5.296;2023-09-18T08:05:35;20.80;99.70
68235;DHT22;55052;52.056;5.296;2023-09-18T08:08:02;20.80;99.60
68235;DHT22;55052;52.056;5.296;2023-09-18T08:10:31;20.80;99.50
68235;DHT22;55052;52.056;5.296;2023-09-18T08:12:59;20.80;99.50
68235;DHT22;55052;52.056;5.296;2023-09-18T08:15:26;20.80;99.40
68235;DHT22;55052;52.056;5.296;2023-09-18T08:17:53;20.80;99.40
68235;DHT22;55052;52.056;5.296;2023-09-18T08:20:21;20.80;99.30
68235;DHT22;55052;52.056;5.296;2023-09-18T08:22:48;20.80;99.20
68235;DHT22;55052;52.056;5.296;2023-09-18T08:25:15;20.80;99.20
68235;DHT22;55052;52.056;5.296;2023-09-18T08:27:42;20.80;99.10
68235;DHT22;55052;52.056;5.296;2023-09-18T08:30:12;20.80;99.00
68235;DHT22;55052;52.056;5.296;2023-09-18T08:32:41;20.80;98.80
68235;DHT22;55052;52.056;5.296;2023-09-18T08:35:08;20.80;98.70
68235;DHT22;55052;52.056;5.296;2023-09-18T08:37:36;20.80;98.70
68235;DHT22;55052;52.056;5.296;2023-09-18T08:40:03;20.80;98.60
68235;DHT22;55052;52.056;5.296;2023-09-18T08:42:47;20.80;98.60
68235;DHT22;55052;52.056;5.296;2023-09-18T08:48:20;20.90;98.30
68235;DHT22;55052;52.056;5.296;2023-09-18T08:50:48;20.80;98.40
68235;DHT22;55052;52.056;5.296;2023-09-18T08:53:15;20.80;98.30
68235;DHT22;55052;52.056;5.296;2023-09-18T08:55:42;20.90;98.30
68235;DHT22;55052;52.056;5.296;2023-09-18T08:58:09;20.90;98.20
68235;DHT22;55052;52.056;5.296;2023-09-18T09:00:37;20.90;98.10
68235;DHT22;55052;52.056;5.296;2023-09-18T09:03:04;20.90;98.10
68235;DHT22;55052;52.056;5.296;2023-09-18T09:05:32;20.90;98.00
68235;DHT22;55052;52.056;5.296;2023-09-18T09:07:59;21.00;98.00
68235;DHT22;55052;52.056;5.296;2023-09-18T09:10:27;21.00;98.10
68235;DHT22;55052;52.056;5.296;2023-09-18T09:15:27;21.10;98.00
68235;DHT22;55052;52.056;5.296;2023-09-18T09:18:06;21.20;97.90
68235;DHT22;55052;52.056;5.296;2023-09-18T09:20:33;21.30;97.70
68235;DHT22;55052;52.056;5.296;2023-09-18T09:23:03;21.30;97.40
68235;DHT22;55052;52.056;5.296;2023-09-18T09:25:31;21.40;97.30
68235;DHT22;55052;52.056;5.296;2023-09-18T09:28:02;21.40;97.10
68235;DHT22;55052;52.056;5.296;2023-09-18T09:30:31;21.50;96.90
68235;DHT22;55052;52.056;5.296;2023-09-18T09:32:59;21.50;96.70
68235;DHT22;55052;52.056;5.296;2023-09-18T09:35:31;21.50;96.40
68235;DHT22;55052;52.056;5.296;2023-09-18T09:38:09;21.60;96.20
68235;DHT22;55052;52.056;5.296;2023-09-18T09:40:39;21.60;96.20
68235;DHT22;55052;52.056;5.296;2023-09-18T09:43:09;21.70;95.80
68235;DHT22;55052;52.056;5.296;2023-09-18T09:45:36;21.70;95.50
68235;DHT22;55052;52.056;5.296;2023-09-18T09:48:04;21.70;95.20
68235;DHT22;55052;52.056;5.296;2023-09-18T09:50:34;21.70;95.00
68235;DHT22;55052;52.056;5.296;2023-09-18T09:53:01;21.70;94.20
68235;DHT22;55052;52.056;5.296;2023-09-18T09:55:33;21.60;94.70
68235;DHT22;55052;52.056;5.296;2023-09-18T09:58:06;21.70;94.70
68235;DHT22;55052;52.056;5.296;2023-09-18T10:03:17;21.60;94.60
68235;DHT22;55052;52.056;5.296;2023-09-18T10:05:46;21.60;94.50
68235;DHT22;55052;52.056;5.296;2023-09-18T10:08:21;21.60;94.40
68235;DHT22;55052;52.056;5.296;2023-09-18T10:10:53;21.60;94.20
68235;DHT22;55052;52.056;5.296;2023-09-18T10:13:27;21.70;94.10
68235;DHT22;55052;52.056;5.296;2023-09-18T10:15:56;21.60;93.90
68235;DHT22;55052;52.056;5.296;2023-09-18T10:22:21;21.70;93.70
68235;DHT22;55052;52.056;5.296;2023-09-18T10:24:24;21.70;93.60
68235;DHT22;55052;52.056;5.296;2023-09-18T10:27:01;21.70;93.60
68235;DHT22;55052;52.056;5.296;2023-09-18T10:29:31;21.70;93.50
68235;DHT22;55052;52.056;5.296;2023-09-18T10:31:59;21.70;93.60
68235;DHT22;55052;52.056;5.296;2023-09-18T10:34:28;21.70;93.80
68235;DHT22;55052;52.056;5.296;2023-09-18T10:36:57;21.70;93.80
68235;DHT22;55052;52.056;5.296;2023-09-18T10:39:26;21.70;93.90
68235;DHT22;55052;52.056;5.296;2023-09-18T10:42:01;21.70;93.60
68235;DHT22;55052;52.056;5.296;2023-09-18T10:44:29;21.70;94.10
68235;DHT22;55052;52.056;5.296;2023-09-18T10:46:58;21.70;94.10
68235;DHT22;55052;52.056;5.296;2023-09-18T10:49:28;21.70;93.90
68235;DHT22;55052;52.056;5.296;2023-09-18T10:51:56;21.70;93.80
68235;DHT22;55052;52.056;5.296;2023-09-18T10:54:25;21.70;93.70
68235;DHT22;55052;52.056;5.296;2023-09-18T10:56:56;21.70;93.70
68235;DHT22;55052;52.056;5.296;2023-09-18T10:59:23;21.70;93.70
68235;DHT22;55052;52.056;5.296;2023-09-18T11:01:50;21.70;93.80
68235;DHT22;55052;52.056;5.296;2023-09-18T11:04:20;21.70;93.80
68235;DHT22;55052;52.056;5.296;2023-09-18T11:09:27;21.90;93.70
68235;DHT22;55052;52.056;5.296;2023-09-18T11:12:03;21.90;93.50
68235;DHT22;55052;52.056;5.296;2023-09-18T11:25:36;22.10;92.70
68235;DHT22;55052;52.056;5.296;2023-09-18T11:28:13;22.10;92.20
68235;DHT22;55052;52.056;5.296;2023-09-18T11:30:52;22.00;91.90
68235;DHT22;55052;52.056;5.296;2023-09-18T11:36:06;22.00;91.70
68235;DHT22;55052;52.056;5.296;2023-09-18T11:38:35;22.00;91.70
68235;DHT22;55052;52.056;5.296;2023-09-18T11:41:29;22.10;91.80
68235;DHT22;55052;52.056;5.296;2023-09-18T11:46:49;22.10;91.30
68235;DHT22;55052;52.056;5.296;2023-09-18T11:49:23;22.10;91.40
68235;DHT22;55052;52.056;5.296;2023-09-18T11:51:54;22.10;91.30
68235;DHT22;55052;52.056;5.296;2023-09-18T11:54:21;22.10;91.40
68235;DHT22;55052;52.056;5.296;2023-09-18T11:56:48;22.20;91.10
68235;DHT22;55052;52.056;5.296;2023-09-18T11:59:15;22.20;91.10
68235;DHT22;55052;52.056;5.296;2023-09-18T12:01:42;22.20;91.00
68235;DHT22;55052;52.056;5.296;2023-09-18T12:04:13;22.20;90.90
68235;DHT22;55052;52.056;5.296;2023-09-18T12:06:41;22.30;91.00
68235;DHT22;55052;52.056;5.296;2023-09-18T12:09:09;22.30;90.80
68235;DHT22;55052;52.056;5.296;2023-09-18T12:11:36;22.30;90.70
68235;DHT22;55052;52.056;5.296;2023-09-18T12:14:05;22.30;90.50
68235;DHT22;55052;52.056;5.296;2023-09-18T12:16:38;22.30;90.30
68235;DHT22;55052;52.056;5.296;2023-09-18T12:19:08;22.30;90.20
68235;DHT22;55052;52.056;5.296;2023-09-18T12:21:41;22.30;90.20
68235;DHT22;55052;52.056;5.296;2023-09-18T12:24:28;22.40;90.00
68235;DHT22;55052;52.056;5.296;2023-09-18T12:26:57;22.40;89.40
68235;DHT22;55052;52.056;5.296;2023-09-18T12:29:24;22.50;89.40
68235;DHT22;55052;52.056;5.296;2023-09-18T12:31:51;22.50;89.00
68235;DHT22;55052;52.056;5.296;2023-09-18T12:34:20;22.60;89.00
68235;DHT22;55052;52.056;5.296;2023-09-18T12:36:51;22.70;88.80
68235;DHT22;55052;52.056;5.296;2023-09-18T12:39:18;22.70;88.40
68235;DHT22;55052;52.056;5.296;2023-09-18T12:41:48;22.80;88.20
68235;DHT22;55052;52.056;5.296;2023-09-18T12:44:15;22.80;88.10
68235;DHT22;55052;52.056;5.296;2023-09-18T12:46:44;22.90;87.70
68235;DHT22;55052;52.056;5.296;2023-09-18T12:49:21;22.90;87.00
68235;DHT22;55052;52.056;5.296;2023-09-18T12:51:58;23.00;86.60
68235;DHT22;55052;52.056;5.296;2023-09-18T12:54:43;23.00;86.50
68235;DHT22;55052;52.056;5.296;2023-09-18T12:57:15;23.10;86.80
68235;DHT22;55052;52.056;5.296;2023-09-18T12:59:42;23.10;86.70
68235;DHT22;55052;52.056;5.296;2023-09-18T13:02:13;23.10;86.30
68235;DHT22;55052;52.056;5.296;2023-09-18T13:04:40;23.20;85.70
68235;DHT22;55052;52.056;5.296;2023-09-18T13:07:13;23.20;85.10
68235;DHT22;55052;52.056;5.296;2023-09-18T13:09:40;23.30;84.70
68235;DHT22;55052;52.056;5.296;2023-09-18T13:12:08;23.30;84.70
68235;DHT22;55052;52.056;5.296;2023-09-18T13:15:01;23.30;84.80
68235;DHT22;55052;52.056;5.296;2023-09-18T13:17:46;23.30;84.50
68235;DHT22;55052;52.056;5.296;2023-09-18T13:20:16;23.40;84.60
68235;DHT22;55052;52.056;5.296;2023-09-18T13:22:53;23.40;84.80
68235;DHT22;55052;52.056;5.296;2023-09-18T13:25:29;23.40;84.50
68235;DHT22;55052;52.056;5.296;2023-09-18T13:27:57;23.50;84.40
68235;DHT22;55052;52.056;5.296;2023-09-18T13:30:25;23.50;84.60
68235;DHT22;55052;52.056;5.296;2023-09-18T13:33:19;23.60;84.40
68235;DHT22;55052;52.056;5.296;2023-09-18T13:35:46;23.50;85.20
68235;DHT22;55052;52.056;5.296;2023-09-18T13:38:13;23.60;84.10
68235;DHT22;55052;52.056;5.296;2023-09-18T13:40:47;23.50;83.50
68235;DHT22;55052;52.056;5.296;2023-09-18T13:43:14;23.50;83.10
68235;DHT22;55052;52.056;5.296;2023-09-18T13:45:45;23.50;83.00
68235;DHT22;55052;52.056;5.296;2023-09-18T13:48:12;23.50;82.70
68235;DHT22;55052;52.056;5.296;2023-09-18T13:50:39;23.50;82.10
68235;DHT22;55052;52.056;5.296;2023-09-18T13:53:06;23.50;81.50
68235;DHT22;55052;52.056;5.296;2023-09-18T13:55:34;23.60;81.60
68235;DHT22;55052;52.056;5.296;2023-09-18T13:58:02;23.80;81.40
68235;DHT22;55052;52.056;5.296;2023-09-18T14:00:32;24.00;81.30
68235;DHT22;55052;52.056;5.296;2023-09-18T14:02:59;24.30;80.90
68235;DHT22;55052;52.056;5.296;2023-09-18T14:05:26;24.70;79.60
68235;DHT22;55052;52.056;5.296;2023-09-18T14:07:55;24.90;78.60
68235;DHT22;55052;52.056;5.296;2023-09-18T14:10:27;25.10;78.00
68235;DHT22;55052;52.056;5.296;2023-09-18T14:12:55;25.20;78.00
68235;DHT22;55052;52.056;5.296;2023-09-18T14:15:21;25.30;77.40
68235;DHT22;55052;52.056;5.296;2023-09-18T14:17:49;25.30;76.60
68235;DHT22;55052;52.056;5.296;2023-09-18T14:20:16;25.40;76.40
68235;DHT22;55052;52.056;5.296;2023-09-18T14:22:46;25.50;75.50
68235;DHT22;55052;52.056;5.296;2023-09-18T14:25:16;25.60;74.80
68235;DHT22;55052;52.056;5.296;2023-09-18T14:27:43;25.60;74.10
68235;DHT22;55052;52.056;5.296;2023-09-18T14:30:11;25.50;73.80
68235;DHT22;55052;52.056;5.296;2023-09-18T14:32:39;25.40;73.30
68235;DHT22;55052;52.056;5.296;2023-09-18T14:35:06;25.20;73.00
68235;DHT22;55052;52.056;5.296;2023-09-18T14:37:36;25.00;73.60
68235;DHT22;55052;52.056;5.296;2023-09-18T14:40:04;24.80;73.10
68235;DHT22;55052;52.056;5.296;2023-09-18T14:42:31;24.60;73.20
68235;DHT22;55052;52.056;5.296;2023-09-18T14:44:58;24.50;73.70
68235;DHT22;55052;52.056;5.296;2023-09-18T14:47:25;24.30;73.60
68235;DHT22;55052;52.056;5.296;2023-09-18T14:49:52;24.20;73.80
68235;DHT22;55052;52.056;5.296;2023-09-18T14:52:18;24.00;74.20
68235;DHT22;55052;52.056;5.296;2023-09-18T14:54:47;23.90;74.30
68235;DHT22;55052;52.056;5.296;2023-09-18T14:57:15;23.80;74.70
68235;DHT22;55052;52.056;5.296;2023-09-18T14:59:41;23.70;74.80
68235;DHT22;55052;52.056;5.296;2023-09-18T15:02:14;23.60;74.80
68235;DHT22;55052;52.056;5.296;2023-09-18T15:04:43;23.50;75.90
68235;DHT22;55052;52.056;5.296;2023-09-18T15:07:10;23.30;77.50
68235;DHT22;55052;52.056;5.296;2023-09-18T15:09:37;23.00;77.90
68235;DHT22;55052;52.056;5.296;2023-09-18T15:12:05;22.70;78.00
68235;DHT22;55052;52.056;5.296;2023-09-18T15:14:35;22.30;78.20
68235;DHT22;55052;52.056;5.296;2023-09-18T15:17:03;21.90;78.60
68235;DHT22;55052;52.056;5.296;2023-09-18T15:19:30;21.60;79.10
68235;DHT22;55052;52.056;5.296;2023-09-18T15:21:58;21.30;80.00
68235;DHT22;55052;52.056;5.296;2023-09-18T15:24:24;21.00;80.70
68235;DHT22;55052;52.056;5.296;2023-09-18T15:26:51;20.70;81.40
68235;DHT22;55052;52.056;5.296;2023-09-18T15:29:18;20.50;82.20
68235;DHT22;55052;52.056;5.296;2023-09-18T15:31:45;20.30;82.80
68235;DHT22;55052;52.056;5.296;2023-09-18T15:34:13;20.00;83.50
68235;DHT22;55052;52.056;5.296;2023-09-18T15:36:40;19.90;84.30
68235;DHT22;55052;52.056;5.296;2023-09-18T15:39:07;19.80;85.00
68235;DHT22;55052;52.056;5.296;2023-09-18T15:41:35;19.60;85.50
68235;DHT22;55052;52.056;5.296;2023-09-18T15:44:04;19.50;86.00
68235;DHT22;55052;52.056;5.296;2023-09-18T15:46:32;19.40;86.60
68235;DHT22;55052;52.056;5.296;2023-09-18T15:48:59;19.30;87.10
68235;DHT22;55052;52.056;5.296;2023-09-18T15:51:26;19.20;87.50
68235;DHT22;55052;52.056;5.296;2023-09-18T15:53:54;19.20;87.90
68235;DHT22;55052;52.056;5.296;2023-09-18T15:56:24;19.10;88.30
68235;DHT22;55052;52.056;5.296;2023-09-18T15:58:51;19.10;88.90
68235;DHT22;55052;52.056;5.296;2023-09-18T16:01:17;19.00;90.20
68235;DHT22;55052;52.056;5.296;2023-09-18T16:03:45;19.00;90.10
68235;DHT22;55052;52.056;5.296;2023-09-18T16:06:18;19.10;90.40
68235;DHT22;55052;52.056;5.296;2023-09-18T16:08:48;19.20;90.70
68235;DHT22;55052;52.056;5.296;2023-09-18T16:11:16;19.30;90.90